Time;durP1;ratioP1;P1;durP2;ratioP2;P2;SDS_P1;SDS_P2;PMS_P1;PMS_P2;Temp;Humidity;BMP_temperature;BMP_pressure;BME280_temperature;BME280_humidity;BME280_pressure;Samples;Min_cycle;Max_cycle;Signal;HPM_P1;HPM_P2
2023/01/06 00:01:02;;;;;;;3.65;2.60;;;8.30;99.90;;;;;;6005847;23;20023;-90
2023/01/06 00:04:16;;;;;;;3.28;2.47;;;8.30;99.90;;;;;;6001722;23;20032;-88
2023/01/06 00:07:50;;;;;;;;;;;;;;;;;;;;;
2023/01/06 00:10:54;;;;;;;5.70;3.33;;;8.20;99.90;;;;;;5963490;23;20050;-89
2023/01/06 00:13:44;;;;;;;5.43;3.90;;;8.20;99.90;;;;;;6008728;23;20036;-90
2023/01/06 00:16:45;;;;;;;5.45;3.70;;;8.10;99.90;;;;;;6006386;23;20339;-89
2023/01/06 00:19:44;;;;;;;6.70;3.92;;;8.10;99.90;;;;;;5987275;23;20038;-90
2023/01/06 00:27:04;;;;;;;5.85;3.90;;;8.00;99.90;;;;;;5922694;24;20017;-90
2023/01/06 00:29:59;;;;;;;7.07;4.20;;;8.00;99.90;;;;;;5987726;23;20028;-90
2023/01/06 00:33:13;;;;;;;4.72;3.70;;;8.00;99.90;;;;;;5989439;23;20027;-90
2023/01/06 00:36:21;;;;;;;7.40;4.13;;;8.00;99.90;;;;;;5988625;23;20038;-89
2023/01/06 00:39:16;;;;;;;4.45;3.63;;;8.00;99.90;;;;;;5989078;23;20754;-88
2023/01/06 00:42:29;;;;;;;5.07;3.53;;;8.10;99.90;;;;;;5997619;23;20031;-90
2023/01/06 00:45:17;;;;;;;7.28;4.00;;;8.10;99.90;;;;;;6096535;23;20026;-90
2023/01/06 00:52:39;;;;;;;4.60;3.55;;;8.10;99.90;;;;;;6095504;23;20014;-90
2023/01/06 00:55:31;;;;;;;4.05;3.50;;;8.10;99.90;;;;;;6096677;23;20124;-89
2023/01/06 01:03:01;;;;;;;;;;;;;;;;;;;;;
2023/01/06 01:06:49;;;;;;;4.20;3.45;;;8.10;99.90;;;;;;6094021;23;20030;-90
2023/01/06 01:09:45;;;;;;;5.03;3.20;;;8.10;99.90;;;;;;6094025;23;20036;-91
2023/01/06 01:12:39;;;;;;;3.97;3.42;;;8.10;99.90;;;;;;6095091;23;20050;-90
2023/01/06 01:15:30;;;;;;;5.10;3.58;;;8.10;99.90;;;;;;6094710;23;20026;-90
2023/01/06 01:18:30;;;;;;;4.40;3.53;;;8.10;99.90;;;;;;6093437;23;20384;-90
2023/01/06 01:21:18;;;;;;;5.03;3.15;;;8.10;99.90;;;;;;6095376;23;20026;-89
2023/01/06 01:24:28;;;;;;;3.83;3.15;;;8.00;99.90;;;;;;5997733;23;20175;-90
2023/01/06 01:27:45;;;;;;;9.32;3.92;;;8.00;99.90;;;;;;6006926;23;20034;-88
2023/01/06 01:31:21;;;;;;;3.90;3.00;;;7.90;99.90;;;;;;5990689;23;20093;-89
2023/01/06 01:34:44;;;;;;;3.20;2.90;;;8.00;99.90;;;;;;5986925;23;20107;-90
2023/01/06 01:37:43;;;;;;;6.80;3.50;;;8.00;99.90;;;;;;5989354;23;20185;-89
2023/01/06 01:45:22;;;;;;;4.43;3.15;;;8.00;99.90;;;;;;6002239;23;20427;-90
2023/01/06 01:48:34;;;;;;;5.15;2.85;;;8.00;99.90;;;;;;6063471;23;20058;-89
2023/01/06 01:51:34;;;;;;;3.53;3.00;;;8.00;99.90;;;;;;6094546;23;20073;-88
2023/01/06 02:02:38;;;;;;;5.93;2.97;;;8.10;99.90;;;;;;6095083;23;20018;-89
2023/01/06 02:09:18;;;;;;;3.92;2.65;;;8.10;99.90;;;;;;6095666;23;20026;-88
2023/01/06 02:12:39;;;;;;;3.55;2.80;;;8.20;99.90;;;;;;6070021;23;20030;-89
2023/01/06 02:15:45;;;;;;;3.53;2.70;;;8.20;99.90;;;;;;6094921;23;20026;-88
2023/01/06 02:23:27;;;;;;;3.58;2.88;;;8.20;99.90;;;;;;6068940;23;20493;-90
2023/01/06 02:26:45;;;;;;;3.33;2.67;;;8.30;99.90;;;;;;6115643;23;20189;-90
2023/01/06 02:30:13;;;;;;;3.67;2.60;;;8.30;99.90;;;;;;6115503;23;20112;-90
2023/01/06 02:33:08;;;;;;;3.17;2.60;;;8.30;88.70;;;;;;6097738;23;20030;-90
2023/01/06 02:40:08;;;;;;;5.28;2.38;;;8.40;1.00;;;;;;6096025;23;20041;-90
2023/01/06 02:43:21;;;;;;;3.13;2.63;;;8.40;1.00;;;;;;6076939;23;20030;-92
2023/01/06 02:46:33;;;;;;;3.88;3.05;;;8.50;99.90;;;;;;6098393;23;20128;-89
2023/01/06 02:49:45;;;;;;;3.50;2.55;;;8.50;99.90;;;;;;6108580;23;20026;-89
2023/01/06 02:53:04;;;;;;;3.70;2.80;;;8.50;99.90;;;;;;6125095;23;20041;-89
2023/01/06 02:56:33;;;;;;;2.92;2.60;;;8.50;99.90;;;;;;6118295;23;20030;-90
2023/01/06 03:00:28;;;;;;;3.05;2.53;;;8.40;99.90;;;;;;6077073;23;20684;-89
2023/01/06 03:03:52;;;;;;;3.13;2.20;;;8.40;99.90;;;;;;6114102;23;20034;-90
2023/01/06 03:07:02;;;;;;;4.10;2.92;;;8.30;99.90;;;;;;6114187;23;20493;-91
2023/01/06 03:10:31;;;;;;;4.28;2.78;;;8.30;99.90;;;;;;6096376;23;20026;-90
2023/01/06 03:13:55;;;;;;;6.60;2.58;;;8.20;99.90;;;;;;6114892;23;20037;-90
2023/01/06 03:17:26;;;;;;;4.38;2.70;;;8.10;1.00;;;;;;6095946;23;20105;-91
2023/01/06 03:21:14;;;;;;;2.75;2.38;;;8.10;1.00;;;;;;6216260;23;20404;-90
2023/01/06 03:24:05;;;;;;;3.10;2.67;;;8.00;3.20;;;;;;6215597;23;20039;-90
2023/01/06 03:27:05;;;;;;;4.72;3.05;;;7.90;52.20;;;;;;6194744;23;20067;-90
2023/01/06 03:29:55;;;;;;;4.50;2.90;;;7.80;99.90;;;;;;6192649;23;20028;-89
2023/01/06 03:33:04;;;;;;;6.00;3.53;;;7.70;99.90;;;;;;6195994;23;20034;-90
2023/01/06 03:40:14;;;;;;;5.55;3.17;;;7.70;99.90;;;;;;6212830;23;20072;-90
2023/01/06 03:43:35;;;;;;;5.30;3.50;;;7.70;99.90;;;;;;6199442;23;20024;-91
2023/01/06 03:46:52;;;;;;;4.67;3.43;;;7.70;99.90;;;;;;6217546;23;20069;-91
2023/01/06 03:49:52;;;;;;;4.28;2.70;;;7.80;99.90;;;;;;6196651;23;20343;-90
2023/01/06 03:53:49;;;;;;;4.93;3.17;;;7.80;99.90;;;;;;6082710;23;20029;-91
2023/01/06 04:00:37;;;;;;;8.75;3.47;;;7.70;99.90;;;;;;6097432;23;20023;-90
2023/01/06 04:03:35;;;;;;;8.43;3.88;;;7.70;99.90;;;;;;6095747;23;20026;-90
2023/01/06 04:06:46;;;;;;;5.05;3.53;;;7.70;99.90;;;;;;6094855;23;20441;-91
2023/01/06 04:09:36;;;;;;;4.28;3.63;;;7.70;99.90;;;;;;6095504;23;20418;-90
2023/01/06 04:19:49;;;;;;;8.57;3.67;;;7.60;99.90;;;;;;6006787;23;20067;-90
2023/01/06 04:22:41;;;;;;;7.10;3.85;;;7.60;99.90;;;;;;6062900;23;20473;-90
2023/01/06 04:25:28;;;;;;;6.10;3.97;;;7.60;99.90;;;;;;6103885;23;20452;-90
2023/01/06 04:28:18;;;;;;;4.50;4.03;;;7.60;99.90;;;;;;6103373;23;20026;-90
2023/01/06 04:31:29;;;;;;;6.00;3.90;;;7.50;99.90;;;;;;6098872;23;20039;-89
2023/01/06 04:34:18;;;;;;;4.60;3.97;;;7.40;99.90;;;;;;6094027;23;20031;-90
2023/01/06 04:37:26;;;;;;;6.63;4.20;;;7.30;99.90;;;;;;6095557;23;20105;-90
2023/01/06 04:40:38;;;;;;;4.38;3.97;;;7.10;99.90;;;;;;6093380;23;20042;-89
2023/01/06 04:43:25;;;;;;;5.38;4.32;;;7.10;99.90;;;;;;6093285;23;20424;-89
2023/01/06 04:46:13;;;;;;;7.75;4.88;;;7.00;99.90;;;;;;6094012;23;20034;-89
2023/01/06 04:49:02;;;;;;;5.00;4.50;;;7.00;99.90;;;;;;6095556;23;20023;-89
2023/01/06 04:51:59;;;;;;;5.97;4.90;;;7.00;99.90;;;;;;6096190;23;20030;-90
2023/01/06 04:54:49;;;;;;;8.02;5.28;;;7.00;99.90;;;;;;6092239;23;20057;-88
2023/01/06 04:57:39;;;;;;;5.72;4.63;;;7.00;99.90;;;;;;6095374;23;20034;-89
2023/01/06 05:00:49;;;;;;;7.90;5.18;;;7.10;99.90;;;;;;6048334;23;20132;-89
2023/01/06 05:07:45;;;;;;;6.53;4.55;;;7.20;99.90;;;;;;6096078;23;20006;-89
2023/01/06 05:10:39;;;;;;;5.10;4.00;;;7.20;99.90;;;;;;6095828;23;20034;-89
2023/01/06 05:13:30;;;;;;;4.35;3.90;;;7.30;99.90;;;;;;6096902;23;20030;-91
2023/01/06 05:20:13;;;;;;;5.35;4.00;;;7.40;99.90;;;;;;6028158;23;20023;-88
2023/01/06 05:23:00;;;;;;;4.60;3.60;;;7.50;99.90;;;;;;6094301;23;20023;-90
2023/01/06 05:26:00;;;;;;;4.20;3.70;;;7.50;99.90;;;;;;6095674;23;20083;-90
2023/01/06 05:28:53;;;;;;;4.50;3.50;;;7.50;99.90;;;;;;6096135;23;20263;-89
2023/01/06 05:31:51;;;;;;;3.95;3.58;;;7.60;99.90;;;;;;6095524;23;20041;-89
2023/01/06 05:34:38;;;;;;;3.67;3.08;;;7.60;99.90;;;;;;6096359;23;20049;-89
2023/01/06 05:37:27;;;;;;;5.65;3.22;;;7.60;99.90;;;;;;6096341;23;20080;-91
2023/01/06 05:40:14;;;;;;;3.78;3.13;;;7.70;99.90;;;;;;6095613;23;20062;-89
2023/01/06 05:43:01;;;;;;;3.03;2.72;;;7.70;99.90;;;;;;6093051;23;20100;-90
2023/01/06 05:45:49;;;;;;;4.30;3.08;;;7.70;99.90;;;;;;6096632;23;20026;-89
2023/01/06 05:48:37;;;;;;;4.30;3.08;;;7.70;99.90;;;;;;6097945;23;20023;-91
2023/01/06 05:51:33;;;;;;;4.43;3.15;;;7.70;99.90;;;;;;6095871;23;20057;-90
2023/01/06 05:54:34;;;;;;;3.40;2.97;;;7.70;99.90;;;;;;6079181;23;20022;-89
2023/01/06 05:57:21;;;;;;;7.25;3.10;;;7.70;99.90;;;;;;6099608;23;20417;-90
2023/01/06 06:00:09;;;;;;;6.35;3.40;;;7.70;99.90;;;;;;6106247;23;20027;-89
2023/01/06 06:02:56;;;;;;;3.55;3.03;;;7.60;99.90;;;;;;6104237;23;20023;-91
2023/01/06 06:05:46;;;;;;;4.40;3.30;;;7.60;99.90;;;;;;6096773;23;20410;-91
2023/01/06 06:08:34;;;;;;;5.82;3.20;;;7.50;99.90;;;;;;6097343;23;20027;-91
2023/01/06 06:11:21;;;;;;;4.97;3.13;;;7.40;99.90;;;;;;6095846;23;20027;-89
2023/01/06 06:14:09;;;;;;;6.00;3.50;;;7.30;99.90;;;;;;6096279;23;20085;-90
2023/01/06 06:16:56;;;;;;;4.15;3.47;;;7.30;99.90;;;;;;6096928;23;20288;-89
2023/01/06 06:19:44;;;;;;;6.75;3.53;;;7.20;99.90;;;;;;6098450;23;20445;-89
2023/01/06 06:22:31;;;;;;;6.90;3.45;;;7.10;99.90;;;;;;6097825;23;20027;-90
2023/01/06 06:25:19;;;;;;;5.20;3.92;;;7.00;99.90;;;;;;6116124;23;20026;-90
2023/01/06 06:28:08;;;;;;;6.43;3.95;;;7.10;99.90;;;;;;6098867;23;20062;-92
2023/01/06 06:31:13;;;;;;;6.22;3.42;;;7.10;99.90;;;;;;6096431;23;20033;-90
2023/01/06 06:34:02;;;;;;;3.63;3.33;;;7.00;99.90;;;;;;6096435;23;20109;-89
2023/01/06 06:36:49;;;;;;;4.07;3.42;;;6.80;99.90;;;;;;6097803;23;20057;-90
2023/01/06 06:39:36;;;;;;;4.43;3.60;;;6.80;99.90;;;;;;6098568;23;20560;-90
2023/01/06 06:42:25;;;;;;;6.43;3.72;;;6.70;99.90;;;;;;6096589;23;20082;-90
2023/01/06 06:45:48;;;;;;;4.78;3.53;;;6.80;99.90;;;;;;6097813;23;20527;-90
2023/01/06 06:48:58;;;;;;;4.82;3.65;;;6.90;99.90;;;;;;6087699;23;20026;-89
2023/01/06 06:51:48;;;;;;;5.32;3.47;;;7.10;99.90;;;;;;6095152;23;20019;-89
2023/01/06 06:54:35;;;;;;;7.95;3.20;;;7.20;99.90;;;;;;6096873;23;20022;-91
2023/01/06 06:57:23;;;;;;;3.20;2.85;;;7.40;99.90;;;;;;6110593;23;20027;-87
2023/01/06 07:00:12;;;;;;;3.72;3.40;;;7.50;99.90;;;;;;6108645;23;20082;-86
2023/01/06 07:03:01;;;;;;;3.15;2.85;;;7.50;99.90;;;;;;6108980;23;20028;-88
2023/01/06 07:05:50;;;;;;;3.72;2.67;;;7.50;99.90;;;;;;6108318;23;20022;-88
2023/01/06 07:08:37;;;;;;;3.75;2.80;;;7.60;99.90;;;;;;6107226;23;20022;-90
2023/01/06 07:11:28;;;;;;;3.30;2.85;;;7.70;99.90;;;;;;6107983;23;20030;-89
2023/01/06 07:14:20;;;;;;;3.00;2.58;;;7.80;99.90;;;;;;6107569;23;20034;-89
2023/01/06 07:17:07;;;;;;;3.40;2.78;;;7.90;99.90;;;;;;6110152;23;20026;-90
2023/01/06 07:19:58;;;;;;;3.10;2.80;;;7.90;99.90;;;;;;6109863;23;20022;-88
2023/01/06 07:22:46;;;;;;;3.00;2.70;;;8.10;99.90;;;;;;6116308;23;20028;-85
2023/01/06 07:25:33;;;;;;;2.70;2.28;;;8.10;99.90;;;;;;6136637;23;20022;-88
2023/01/06 07:28:20;;;;;;;2.13;2.00;;;8.20;99.90;;;;;;6117104;23;20015;-87
2023/01/06 07:31:14;;;;;;;3.22;2.25;;;8.30;99.90;;;;;;6109979;23;20082;-86
2023/01/06 07:34:01;;;;;;;4.38;2.45;;;8.30;99.90;;;;;;6110565;23;20049;-88
2023/01/06 07:36:48;;;;;;;4.43;2.60;;;8.30;99.90;;;;;;6133357;23;20014;-88
2023/01/06 07:39:35;;;;;;;4.47;2.10;;;8.40;99.90;;;;;;6109703;23;20010;-88
2023/01/06 07:42:23;;;;;;;3.60;2.42;;;8.40;99.90;;;;;;6112398;23;20053;-89
2023/01/06 07:45:11;;;;;;;2.47;2.28;;;8.40;99.90;;;;;;6111532;23;20081;-89
2023/01/06 07:48:02;;;;;;;3.67;3.03;;;8.40;99.90;;;;;;6104867;23;20097;-87
2023/01/06 07:50:49;;;;;;;3.20;2.70;;;8.30;99.90;;;;;;6107717;23;20034;-88
2023/01/06 07:53:36;;;;;;;3.33;2.70;;;8.30;99.90;;;;;;6102483;23;20038;-88
2023/01/06 07:56:30;;;;;;;3.38;2.78;;;8.30;99.90;;;;;;6103144;23;20030;-88
2023/01/06 07:59:21;;;;;;;3.40;2.40;;;8.30;99.90;;;;;;6102486;23;20026;-90
2023/01/06 08:02:11;;;;;;;6.15;2.60;;;8.30;99.90;;;;;;6123792;23;20101;-89
2023/01/06 08:05:01;;;;;;;2.65;2.45;;;8.30;99.90;;;;;;6096496;23;20026;-85
2023/01/06 08:07:48;;;;;;;5.53;2.20;;;8.30;99.90;;;;;;6093499;23;20112;-81
2023/01/06 08:10:40;;;;;;;2.78;2.58;;;8.20;99.90;;;;;;6093986;23;20026;-81
2023/01/06 08:13:27;;;;;;;2.73;2.30;;;8.10;99.90;;;;;;6093768;23;20034;-82
2023/01/06 08:16:17;;;;;;;3.83;2.17;;;8.10;99.90;;;;;;6112671;23;20243;-83
2023/01/06 08:19:04;;;;;;;2.90;2.47;;;8.10;99.90;;;;;;6093760;23;20041;-82
2023/01/06 08:21:54;;;;;;;2.78;2.30;;;8.10;99.90;;;;;;6093407;23;20030;-82
2023/01/06 08:24:41;;;;;;;2.55;2.25;;;8.10;99.90;;;;;;6094527;23;20037;-83
2023/01/06 08:27:28;;;;;;;2.78;2.45;;;8.10;99.90;;;;;;6093892;23;20090;-82
2023/01/06 08:30:20;;;;;;;4.88;2.47;;;8.20;99.90;;;;;;6091767;23;20022;-82
2023/01/06 08:33:08;;;;;;;2.60;2.40;;;8.10;99.90;;;;;;6093217;23;20410;-83
2023/01/06 08:35:59;;;;;;;3.15;2.30;;;8.20;99.90;;;;;;6093748;23;20034;-83
2023/01/06 08:38:47;;;;;;;3.10;2.58;;;8.20;99.90;;;;;;6094644;23;20066;-82
2023/01/06 08:41:34;;;;;;;2.33;2.13;;;8.20;99.90;;;;;;6092507;23;20394;-84
2023/01/06 08:44:21;;;;;;;2.58;2.33;;;8.30;99.90;;;;;;6092261;23;20030;-84
2023/01/06 08:47:08;;;;;;;2.25;2.05;;;8.40;99.90;;;;;;6093070;23;20026;-83
2023/01/06 08:49:55;;;;;;;2.35;1.90;;;8.40;99.90;;;;;;6093500;23;20023;-83
2023/01/06 08:52:43;;;;;;;4.00;2.20;;;8.50;99.90;;;;;;6092871;23;20038;-83
2023/01/06 08:55:31;;;;;;;3.30;2.60;;;8.50;99.90;;;;;;6095972;23;20030;-82
2023/01/06 08:58:18;;;;;;;3.55;2.58;;;8.50;99.90;;;;;;6093889;23;20030;-83
2023/01/06 09:01:05;;;;;;;3.08;1.88;;;8.50;99.90;;;;;;6093376;23;20030;-84
2023/01/06 09:03:53;;;;;;;2.75;1.92;;;8.50;99.90;;;;;;6093085;23;20033;-84
2023/01/06 09:06:42;;;;;;;3.30;1.60;;;8.60;99.90;;;;;;6093165;23;20034;-84
2023/01/06 09:09:29;;;;;;;1.00;1.00;;;8.60;99.90;;;;;;6092149;23;20058;-83
2023/01/06 09:12:20;;;;;;;1.55;1.08;;;8.70;99.90;;;;;;6093509;23;20023;-84
2023/01/06 09:15:08;;;;;;;1.63;0.95;;;8.60;99.90;;;;;;6093880;23;20027;-84
2023/01/06 09:17:56;;;;;;;0.98;0.98;;;8.60;99.90;;;;;;6092985;23;20026;-83
2023/01/06 09:20:46;;;;;;;2.65;1.50;;;8.60;99.90;;;;;;6092222;23;20031;-84
2023/01/06 09:23:33;;;;;;;2.55;1.30;;;8.60;99.90;;;;;;6093499;23;20161;-83
2023/01/06 09:26:20;;;;;;;1.92;1.67;;;8.60;99.90;;;;;;6092284;23;20180;-83
2023/01/06 09:29:08;;;;;;;3.97;1.50;;;8.70;99.90;;;;;;6093336;23;20153;-84
2023/01/06 09:31:55;;;;;;;1.95;1.65;;;8.70;99.90;;;;;;6092028;23;20022;-83
2023/01/06 09:34:43;;;;;;;1.80;1.55;;;8.70;99.90;;;;;;6093038;23;20031;-84
2023/01/06 09:37:36;;;;;;;0.93;0.82;;;8.60;99.90;;;;;;6091755;23;20111;-82
2023/01/06 09:40:36;;;;;;;1.42;1.17;;;8.70;99.90;;;;;;6090902;23;20035;-83
2023/01/06 09:43:44;;;;;;;4.88;1.35;;;8.80;99.90;;;;;;6065603;23;20027;-83
2023/01/06 09:46:36;;;;;;;1.60;1.50;;;8.80;99.90;;;;;;6063980;23;20034;-82
2023/01/06 09:49:47;;;;;;;1.90;1.20;;;8.90;99.90;;;;;;6062955;23;20060;-82
2023/01/06 09:53:07;;;;;;;1.40;1.30;;;8.90;99.90;;;;;;6065854;23;20254;-81
2023/01/06 09:56:02;;;;;;;1.48;1.33;;;9.00;99.90;;;;;;6062877;23;20039;-82
2023/01/06 09:59:13;;;;;;;1.40;0.90;;;9.20;99.90;;;;;;6065672;23;20038;-85
2023/01/06 10:02:02;;;;;;;2.38;1.80;;;9.60;99.90;;;;;;6065310;23;20041;-83
2023/01/06 10:04:52;;;;;;;2.17;1.55;;;9.70;99.90;;;;;;6065076;23;20034;-83
2023/01/06 10:08:28;;;;;;;1.55;1.30;;;9.90;99.90;;;;;;6062545;23;20027;-84
2023/01/06 10:11:40;;;;;;;2.88;1.60;;;11.20;1.00;;;;;;6091903;23;20031;-83
2023/01/06 10:15:10;;;;;;;1.60;1.50;;;12.80;99.90;;;;;;6063784;23;20085;-83
2023/01/06 10:18:10;;;;;;;1.58;1.00;;;12.50;99.90;;;;;;6064105;23;20102;-84
2023/01/06 10:21:29;;;;;;;1.15;1.05;;;12.00;99.90;;;;;;6063722;23;20089;-83
2023/01/06 10:24:25;;;;;;;1.67;1.00;;;11.50;1.00;;;;;;6067202;23;20438;-83
2023/01/06 10:27:27;;;;;;;1.35;1.23;;;11.00;99.90;;;;;;6066540;23;20109;-83
2023/01/06 10:30:43;;;;;;;1.30;1.20;;;10.60;99.90;;;;;;6068012;23;20027;-83
2023/01/06 10:33:36;;;;;;;0.80;0.80;;;10.20;99.90;;;;;;6067162;23;20061;-84
2023/01/06 10:36:34;;;;;;;1.52;1.00;;;10.00;99.90;;;;;;6068005;23;20056;-82
2023/01/06 10:39:26;;;;;;;0.90;0.90;;;10.20;1.00;;;;;;6071974;23;20338;-83
2023/01/06 10:45:46;;;;;;;1.70;1.00;;;11.30;1.00;;;;;;6068274;23;20085;-82
2023/01/06 10:48:34;;;;;;;1.38;0.98;;;12.60;99.90;;;;;;6066775;23;20081;-84
2023/01/06 10:51:33;;;;;;;0.75;0.75;;;12.30;1.00;;;;;;6064949;23;20124;-84
2023/01/06 10:54:27;;;;;;;0.80;0.80;;;11.40;99.90;;;;;;6066832;23;20027;-83
2023/01/06 10:57:28;;;;;;;0.93;0.90;;;10.90;99.90;;;;;;6065921;23;20045;-84
2023/01/06 11:00:21;;;;;;;2.22;1.08;;;10.70;99.90;;;;;;6065410;23;20454;-82
2023/01/06 11:03:11;;;;;;;1.27;0.85;;;10.50;1.00;;;;;;6065614;23;20157;-82
2023/01/06 11:06:27;;;;;;;0.73;0.73;;;10.20;1.00;;;;;;6065932;23;20381;-83
2023/01/06 11:09:38;;;;;;;0.70;0.65;;;10.20;1.00;;;;;;6065672;23;20037;-82
2023/01/06 11:12:33;;;;;;;0.98;0.70;;;10.20;1.00;;;;;;6065355;23;20034;-85
2023/01/06 11:15:24;;;;;;;0.63;0.63;;;10.10;1.00;;;;;;6064177;23;20370;-84
2023/01/06 11:18:21;;;;;;;1.25;0.82;;;10.30;1.00;;;;;;6065703;23;20101;-86
2023/01/06 11:21:17;;;;;;;1.13;0.80;;;10.30;1.00;;;;;;6065050;23;20038;-85
2023/01/06 11:24:20;;;;;;;3.28;1.10;;;10.60;99.90;;;;;;6063847;23;20034;-85
2023/01/06 11:27:16;;;;;;;1.05;0.85;;;10.60;99.90;;;;;;6065263;23;20041;-86
2023/01/06 11:30:24;;;;;;;0.70;0.70;;;10.60;99.90;;;;;;6063032;23;20043;-84
2023/01/06 11:33:23;;;;;;;1.40;1.02;;;10.50;99.90;;;;;;6065099;23;20035;-87
2023/01/06 11:36:12;;;;;;;2.60;0.70;;;10.50;99.90;;;;;;6067793;23;20031;-85
2023/01/06 11:39:03;;;;;;;0.80;0.80;;;10.50;99.90;;;;;;6064059;23;20303;-84
2023/01/06 11:41:55;;;;;;;0.82;0.80;;;10.50;99.90;;;;;;6063519;23;20035;-84
2023/01/06 11:44:43;;;;;;;0.85;0.80;;;10.40;1.00;;;;;;6065042;23;20415;-84
2023/01/06 11:47:30;;;;;;;1.13;1.00;;;10.40;1.00;;;;;;6066043;23;20023;-83
2023/01/06 11:50:23;;;;;;;1.08;0.88;;;10.30;99.90;;;;;;6065629;23;20030;-87
2023/01/06 11:53:20;;;;;;;1.15;1.00;;;10.30;1.00;;;;;;6063844;23;20105;-83
2023/01/06 11:56:13;;;;;;;0.80;0.80;;;10.20;1.00;;;;;;6066165;23;20105;-83
2023/01/06 11:59:11;;;;;;;0.77;0.77;;;10.20;1.00;;;;;;6066725;23;20042;-87
2023/01/06 12:02:01;;;;;;;2.00;0.98;;;10.20;1.00;;;;;;6067998;23;20038;-83
2023/01/06 12:04:52;;;;;;;2.67;1.23;;;10.10;1.00;;;;;;6066035;23;20026;-83
2023/01/06 12:07:48;;;;;;;0.90;0.90;;;10.10;1.00;;;;;;6064994;23;20035;-83
2023/01/06 12:10:36;;;;;;;0.70;0.70;;;10.10;1.00;;;;;;6066535;23;20326;-83
2023/01/06 12:13:24;;;;;;;0.98;0.98;;;10.30;1.00;;;;;;6073838;23;20031;-83
2023/01/06 12:16:22;;;;;;;0.95;0.88;;;10.30;1.00;;;;;;6048126;23;20031;-84
2023/01/06 12:19:20;;;;;;;2.35;1.13;;;10.20;1.00;;;;;;6065760;23;20033;-84
2023/01/06 12:22:55;;;;;;;1.08;1.00;;;10.10;1.00;;;;;;6066325;23;20030;-84
2023/01/06 12:25:46;;;;;;;2.28;1.35;;;10.10;1.00;;;;;;6073132;23;20034;-83
2023/01/06 12:28:37;;;;;;;1.20;1.10;;;10.00;42.10;;;;;;6067091;23;20410;-84
2023/01/06 12:31:47;;;;;;;2.08;1.35;;;10.00;90.70;;;;;;6063993;23;20134;-84
2023/01/06 12:34:40;;;;;;;0.90;0.90;;;10.10;99.90;;;;;;6065524;23;20073;-84
2023/01/06 12:37:41;;;;;;;3.20;0.88;;;10.10;99.90;;;;;;6064777;23;20054;-84
2023/01/06 12:40:40;;;;;;;1.17;1.08;;;10.10;99.90;;;;;;6064913;23;20057;-84
2023/01/06 12:43:32;;;;;;;1.15;0.90;;;10.10;99.90;;;;;;6063918;23;20027;-84
2023/01/06 12:46:28;;;;;;;1.17;1.08;;;10.10;99.90;;;;;;6064584;23;20085;-83
2023/01/06 12:49:28;;;;;;;0.80;0.80;;;10.10;99.90;;;;;;6065811;23;20035;-84
2023/01/06 12:52:19;;;;;;;;;;;10.10;94.10;;;;;;6064421;23;20031;-83
2023/01/06 12:55:15;;;;;;;3.80;1.20;;;10.10;73.50;;;;;;6065544;23;19941;-83
2023/01/06 12:58:31;;;;;;;1.42;1.10;;;10.00;62.70;;;;;;6047990;23;20074;-84
2023/01/06 13:01:41;;;;;;;1.77;1.20;;;9.90;85.40;;;;;;6064046;23;20027;-83
2023/01/06 13:04:42;;;;;;;2.15;1.10;;;9.80;99.90;;;;;;6063631;23;20077;-82
2023/01/06 13:07:56;;;;;;;1.38;1.23;;;9.80;99.90;;;;;;6064808;23;20042;-83
2023/01/06 13:10:52;;;;;;;1.20;1.10;;;9.70;99.90;;;;;;6064001;23;20122;-83
2023/01/06 13:13:57;;;;;;;1.20;1.10;;;9.70;99.90;;;;;;6064977;23;20129;-84
2023/01/06 13:17:25;;;;;;;0.80;0.80;;;9.70;99.90;;;;;;6063008;23;20228;-85
2023/01/06 13:20:24;;;;;;;0.80;0.80;;;9.70;99.90;;;;;;6099419;23;20031;-85
2023/01/06 13:23:39;;;;;;;3.00;1.50;;;9.80;99.90;;;;;;6064210;23;20422;-83
2023/01/06 13:26:47;;;;;;;2.08;1.30;;;9.80;99.90;;;;;;6062995;23;20426;-82
2023/01/06 13:30:08;;;;;;;1.30;0.88;;;9.70;99.90;;;;;;6064795;23;20397;-83
2023/01/06 13:33:21;;;;;;;0.95;0.68;;;9.60;99.90;;;;;;6064388;23;20092;-82
2023/01/06 13:36:37;;;;;;;2.20;1.55;;;9.70;99.90;;;;;;6063757;23;20027;-82
2023/01/06 13:39:33;;;;;;;2.35;1.58;;;9.60;99.90;;;;;;6065440;23;20053;-83
2023/01/06 13:42:31;;;;;;;1.88;1.67;;;9.60;99.90;;;;;;6064431;23;20030;-82
2023/01/06 13:45:35;;;;;;;2.60;1.73;;;9.60;99.90;;;;;;6063589;23;20027;-83
2023/01/06 13:48:28;;;;;;;1.33;1.20;;;9.60;99.90;;;;;;6066403;23;20030;-85
2023/01/06 13:51:22;;;;;;;1.88;1.45;;;9.60;99.90;;;;;;6065104;23;20027;-85
2023/01/06 13:54:40;;;;;;;1.50;1.40;;;9.50;99.90;;;;;;6065214;23;20039;-81
2023/01/06 13:57:34;;;;;;;2.17;1.30;;;9.50;99.90;;;;;;6065482;23;20031;-83
2023/01/06 14:00:27;;;;;;;1.85;1.30;;;9.50;99.90;;;;;;6065491;23;20030;-83
2023/01/06 14:03:24;;;;;;;1.52;1.42;;;9.50;99.90;;;;;;6066443;23;20063;-82
2023/01/06 14:06:40;;;;;;;1.60;1.40;;;9.60;99.90;;;;;;6064250;23;20031;-82
2023/01/06 14:09:28;;;;;;;2.17;1.38;;;9.60;99.90;;;;;;6066258;23;20023;-82
2023/01/06 14:12:20;;;;;;;2.05;1.63;;;9.60;99.90;;;;;;6065247;23;20026;-85
2023/01/06 14:15:22;;;;;;;1.83;1.70;;;9.60;99.90;;;;;;6064607;23;20093;-82
2023/01/06 14:18:50;;;;;;;1.40;1.30;;;9.60;99.90;;;;;;6064704;23;20062;-85
2023/01/06 14:21:39;;;;;;;1.67;1.35;;;9.60;99.90;;;;;;6064958;23;20035;-84
2023/01/06 14:24:35;;;;;;;1.45;1.30;;;9.60;99.90;;;;;;6066099;23;20034;-85
2023/01/06 14:27:46;;;;;;;1.52;1.25;;;9.60;99.90;;;;;;6064718;23;20031;-85
2023/01/06 14:30:38;;;;;;;1.40;1.30;;;9.60;99.90;;;;;;6064620;23;20120;-83
2023/01/06 14:33:37;;;;;;;2.72;1.30;;;9.60;99.90;;;;;;6066416;23;20050;-83
2023/01/06 14:36:28;;;;;;;2.13;1.05;;;9.60;99.90;;;;;;6065225;23;20423;-86
2023/01/06 14:39:23;;;;;;;2.65;1.58;;;9.60;99.90;;;;;;6065961;23;20040;-85
2023/01/06 14:42:43;;;;;;;1.40;1.30;;;9.50;99.90;;;;;;6063330;23;20038;-84
2023/01/06 14:45:40;;;;;;;1.25;1.15;;;9.50;99.90;;;;;;6065419;23;20027;-84
2023/01/06 14:48:35;;;;;;;1.30;1.20;;;9.50;99.90;;;;;;6066808;23;20326;-84
2023/01/06 14:51:26;;;;;;;2.03;1.35;;;9.50;99.90;;;;;;6065393;23;20026;-83
2023/01/06 14:54:26;;;;;;;1.30;1.20;;;9.50;99.90;;;;;;6065097;23;20214;-84
2023/01/06 14:57:34;;;;;;;2.88;1.40;;;9.50;99.90;;;;;;6066880;23;20049;-85
2023/01/06 15:00:28;;;;;;;2.75;1.42;;;9.50;99.90;;;;;;6067031;23;20109;-84
2023/01/06 15:03:22;;;;;;;;;;;9.50;99.90;;;;;;6066828;23;20031;-85
2023/01/06 15:06:19;;;;;;;3.85;2.55;;;9.50;99.90;;;;;;6070582;22;20314;-83
2023/01/06 15:09:19;;;;;;;2.97;2.00;;;9.40;99.90;;;;;;6066426;23;20038;-83
2023/01/06 15:12:31;;;;;;;1.85;1.63;;;9.40;99.90;;;;;;6065768;23;20023;-85
2023/01/06 15:15:31;;;;;;;1.83;1.73;;;9.40;99.90;;;;;;6066114;23;20039;-85
2023/01/06 15:18:20;;;;;;;1.85;1.30;;;9.40;99.90;;;;;;6066305;23;20311;-85
2023/01/06 15:21:08;;;;;;;2.22;1.60;;;9.40;82.40;;;;;;6065913;23;20042;-85
2023/01/06 15:23:57;;;;;;;2.08;1.60;;;9.30;31.90;;;;;;6044965;23;20031;-84
2023/01/06 15:26:45;;;;;;;1.63;1.40;;;9.30;1.20;;;;;;6065351;23;20113;-85
2023/01/06 15:29:33;;;;;;;1.30;1.20;;;9.30;1.00;;;;;;6065233;23;20027;-84
2023/01/06 15:32:26;;;;;;;1.45;1.35;;;9.30;1.00;;;;;;6063588;23;20130;-84
2023/01/06 15:35:23;;;;;;;2.65;1.80;;;9.20;1.00;;;;;;6065097;23;20037;-85
2023/01/06 15:38:37;;;;;;;1.80;1.65;;;9.20;1.00;;;;;;6068594;23;20046;-85
2023/01/06 15:41:37;;;;;;;2.30;1.65;;;9.20;4.40;;;;;;6065163;23;20031;-84
2023/01/06 15:44:38;;;;;;;3.92;2.22;;;9.20;14.50;;;;;;6066185;23;20029;-84
2023/01/06 15:47:41;;;;;;;3.88;2.78;;;9.10;30.90;;;;;;6064437;23;20031;-85
2023/01/06 15:50:33;;;;;;;2.50;2.00;;;9.10;51.10;;;;;;6066013;23;20023;-84
2023/01/06 15:53:27;;;;;;;2.42;1.80;;;9.10;61.20;;;;;;6064069;23;20027;-85
2023/01/06 15:56:21;;;;;;;2.25;1.58;;;9.10;55.20;;;;;;6065087;23;20030;-85
2023/01/06 15:59:13;;;;;;;3.25;1.75;;;9.10;53.50;;;;;;6065229;23;20433;-84
2023/01/06 16:02:01;;;;;;;2.05;1.52;;;9.10;39.60;;;;;;6065043;23;20027;-84
2023/01/06 16:04:53;;;;;;;2.47;1.60;;;9.10;25.30;;;;;;6064776;23;20037;-84
2023/01/06 16:07:43;;;;;;;1.70;1.60;;;9.00;15.50;;;;;;6065911;23;20104;-84
2023/01/06 16:10:36;;;;;;;2.20;1.42;;;9.00;27.00;;;;;;6065950;23;20034;-85
2023/01/06 16:13:24;;;;;;;2.08;1.08;;;8.90;40.60;;;;;;6065116;23;20046;-85
2023/01/06 16:16:15;;;;;;;2.17;1.08;;;8.90;41.40;;;;;;6064258;23;20434;-85
2023/01/06 16:19:15;;;;;;;1.40;1.23;;;8.90;35.20;;;;;;6064010;23;20426;-85
2023/01/06 16:22:07;;;;;;;2.85;1.50;;;8.90;37.80;;;;;;6062975;23;20031;-86
2023/01/06 16:24:58;;;;;;;1.90;1.75;;;8.90;39.30;;;;;;6067003;23;20117;-84
2023/01/06 16:27:54;;;;;;;9.45;6.05;;;8.90;39.30;;;;;;6067552;23;20022;-84
2023/01/06 16:30:41;;;;;;;19.58;11.88;;;8.90;48.90;;;;;;6064697;23;20431;-84
2023/01/06 16:34:17;;;;;;;10.05;6.80;;;8.90;99.90;;;;;;6064307;23;20031;-84
2023/01/06 16:37:04;;;;;;;5.57;4.38;;;8.90;99.90;;;;;;6065320;23;20038;-85
2023/01/06 16:39:57;;;;;;;6.32;3.97;;;9.00;99.90;;;;;;6063711;23;20030;-84
2023/01/06 16:42:59;;;;;;;5.20;3.67;;;8.90;99.90;;;;;;6065652;23;20037;-85
2023/01/06 16:45:50;;;;;;;4.32;3.75;;;8.90;99.90;;;;;;6064393;23;20023;-84
2023/01/06 16:48:38;;;;;;;5.80;4.10;;;8.90;99.90;;;;;;6064785;23;20081;-84